Station: Busselton Airport  

  Atmospheric Gas Attenuation - ITU Rec 676-11   ----------------- dB/100km -----------------
Date Time Temp RH % AH g/m3 Dew Point Wind Direction Speed kph Gust kph Barometer mB Rainfall Since 9am 24GHz 47GHz 76GHz 122GHz 134GHz 241GHz
06/09 07:50 11.9 79 8.37 8.4 24 33 1025.2 13 19.2 26.5 40.4 105.8 98.7 339.2
06/09 07:40 11.7 79 8.26 8.2 22 30 1025 13 19.0 26.4 40.0 104.8 97.5 334.8
06/09 07:30 11.4 80 8.21 8.1 20 32 1024.9 13 18.9 26.4 39.9 104.6 97.2 333.7
06/09 07:20 11 82 8.21 8.1 19 26 1024.7 13 18.9 26.5 40.1 105.1 97.6 335.3
06/09 07:10 10.9 81 8.06 7.8 20 26 1024.4 13 18.6 26.3 39.6 103.6 95.7 328.5
06/09 07:00 10.7 82 8.06 7.8 20 26 1024.5 13 18.6 26.3 39.7 103.9 96.0 329.4
06/09 06:50 10.8 81 8.01 7.7 22 33 1024.2 13 18.5 26.2 39.4 103.2 95.1 326.5
06/09 06:40 10.8 82 8.11 7.9 24 32 1024.2 13 18.7 26.4 39.8 104.3 96.5 331.3
06/09 06:30 10.7 83 8.15 7.9 26 35 1024 13 18.8 26.5 40.0 104.8 97.1 333.6
06/09 06:20 10.7 83 8.15 7.9 28 35 1023.7 13 18.8 26.5 40.0 104.8 97.1 333.5
06/09 06:10 10.7 83 8.15 7.9 28 35 1023.5 13 18.8 26.5 40.0 104.8 97.1 333.4
06/09 06:00 10.8 82 8.11 7.9 30 37 1023.4 13 18.7 26.4 39.8 104.2 96.4 331.1
06/09 05:50 10.6 83 8.1 7.8 24 32 1023.1 13 18.7 26.4 39.8 104.3 96.5 331.4
06/09 05:40 10.6 83 8.1 7.8 24 32 1023 13 18.7 26.4 39.8 104.3 96.5 331.3
06/09 05:30 10.4 85 8.19 8 22 28 1022.8 13 18.9 26.6 40.3 105.5 98.0 336.4
06/09 05:20 10.2 87 8.28 8.1 20 28 1022.6 13 19.1 26.8 40.7 106.8 99.5 341.6
06/09 05:10 10.3 87 8.33 8.2 20 28 1022.4 13 19.2 26.8 40.9 107.2 100.0 343.5
06/09 05:00 10.2 86 8.19 8 22 30 1022.2 13 18.9 26.6 40.3 105.7 98.2 337.1
06/09 04:50 10.3 85 8.14 7.9 22 30 1022 13 18.8 26.5 40.1 105.0 97.4 334.3
06/09 04:40 10.3 85 8.14 7.9 20 26 1021.7 13 18.8 26.5 40.1 105.0 97.3 334.2
06/09 04:30 10.4 84 8.1 7.8 19 24 1021.4 13 18.7 26.4 39.8 104.4 96.6 331.7
06/09 04:20 10.3 83 7.95 7.5 17 24 1021.2 13 18.4 26.2 39.3 102.8 94.7 325.0
06/09 04:10 10.5 81 7.86 7.4 19 28 1021 13 18.2 25.9 38.8 101.6 93.2 319.8
06/09 04:00 10.7 80 7.86 7.4 20 28 1020.9 13 18.1 25.9 38.7 101.3 93.0 319.0
06/09 03:50 10.8 80 7.91 7.5 20 35 1020.8 13 18.2 25.9 38.8 101.7 93.5 320.9
06/09 03:40 11 80 8.01 7.7 24 32 1020.6 13 18.5 26.0 39.1 102.5 94.6 324.7
06/09 03:30 11.5 79 8.16 8 32 41 1020.5 13 18.8 26.1 39.5 103.5 96.0 329.7
06/09 03:20 11.1 84 8.46 8.5 26 39 1020.3 13 19.4 26.7 40.9 107.3 100.6 345.7
06/09 03:10 11.4 86 8.83 9.1 28 41 1020.3 13 20.2 27.3 42.3 111.0 105.3 362.1
06/09 03:00 11.5 90 9.3 9.9 24 32 1020.4 13 21.2 28.0 44.3 116.2 111.7 384.6
06/09 02:50 11.6 91 9.46 10.2 24 33 1020.3 13 21.5 28.3 44.9 117.9 113.8 391.9
06/09 02:40 11.8 91 9.58 10.4 26 35 1020.1 13 21.8 28.4 45.3 118.9 115.2 396.8
06/09 02:30 11.6 94 9.77 10.7 26 33 1020 13 22.2 28.8 46.2 121.4 118.2 407.2
06/09 02:20 11.4 94 9.65 10.5 24 32 1019.9 13 22.0 28.7 45.8 120.3 116.7 402.3
06/09 02:10 11.5 94 9.71 10.6 22 32 1019.5 13 22.1 28.7 46.0 120.8 117.4 404.6
06/09 02:00 11.3 95 9.69 10.5 20 26 1019.4 13 22.1 28.7 46.0 120.9 117.4 404.6
06/09 01:50 11.4 94 9.65 10.5 20 30 1019.5 13 22.0 28.6 45.8 120.3 116.7 402.1
06/09 01:40 11.3 94 9.59 10.4 22 32 1019.4 13 21.8 28.6 45.6 119.7 116.0 399.6
06/09 01:30 11.5 93 9.61 10.4 26 33 1019.4 13 21.9 28.5 45.5 119.7 116.0 399.6
06/09 01:20 11.6 92 9.56 10.3 28 37 1019.3 13 21.8 28.4 45.3 118.9 115.1 396.6
06/09 01:10 11.7 93 9.73 10.6 28 35 1019.2 13 22.1 28.7 45.9 120.7 117.4 404.5
06/09 01:00 11.7 94 9.83 10.8 28 39 1019 13 22.3 28.8 46.4 121.8 118.8 409.4
06/09 00:50 11.8 95 10 11 35 50 1019.1 13 22.7 29.1 47.0 123.7 121.1 417.4
06/09 00:40 11.8 99 10.42 11.6 32 43 1019 13 23.6 29.8 48.9 128.6 127.1 438.5
06/09 00:30 12 99 10.55 11.8 30 46 1019 13 23.9 30.0 49.3 129.8 128.7 444.0
06/09 00:20 12.3 99 10.75 12.1 26 33 1018.8 13 24.3 30.3 50.0 131.6 131.0 452.4
06/09 00:10 12.4 99 10.82 12.2 26 35 1018.5 13 24.4 30.3 50.3 132.2 131.9 455.2
06/09 00:00 12.5 99 10.89 12.3 28 39 1018.3 13 24.6 30.4 50.5 132.9 132.7 458.1
05/09 23:50 12.6 99 10.95 12.4 28 35 1018.2 13 24.7 30.5 50.7 133.4 133.4 460.6
05/09 23:40 12.7 99 11.02 12.5 24 39 1018.1 13 24.8 30.6 50.9 134.1 134.2 463.5
05/09 23:30 12.9 99 11.16 12.7 28 37 1018.1 13 25.1 30.7 51.4 135.4 135.9 469.5
05/09 23:20 12.9 99 11.16 12.7 22 33 1017.9 13 25.1 30.7 51.4 135.3 135.9 469.4
05/09 23:10 12.8 100 11.2 12.8 19 24 1017.8 13 25.2 30.8 51.7 136.0 136.7 472.0
05/09 23:00 12.9 99 11.16 12.7 17 24 1017.7 13 25.1 30.7 51.4 135.3 135.9 469.3
05/09 22:50 12.5 100 11 12.5 11 22 1017.6 13 24.8 30.6 50.9 134.1 134.2 463.5
05/09 22:40 12.4 100 10.93 12.4 9 11 1017.5 13 24.7 30.5 50.7 133.4 133.4 460.5
05/09 22:30 12.1 100 10.73 12.1 4 9 1017.5 13 24.3 30.2 50.0 131.6 131.0 452.1
05/09 22:20 12 100 10.66 12 0 0 1017.3 13 24.1 30.1 49.7 130.9 130.1 449.0
05/09 22:10 12.1 100 10.73 12.1 0 0 1017.2 13 24.3 30.2 50.0 131.5 130.9 452.0
05/09 22:00 12.2 100 10.79 12.2 0 0 1017.1 13 24.4 30.3 50.2 132.1 131.6 454.4
05/09 21:50 12.1 100 10.73 12.1 6 7 1016.9 13 24.3 30.2 50.0 131.5 130.9 451.9
05/09 21:40 12.1 100 10.73 12.1 7 9 1016.8 13 24.3 30.2 50.0 131.5 130.9 451.8
05/09 21:30 12.1 100 10.73 12.1 6 9 1016.7 13 24.3 30.2 50.0 131.5 130.9 451.8
05/09 21:20 11.9 100 10.59 11.9 7 9 1016.5 12.8 24.0 30.0 49.4 130.1 129.2 445.7
05/09 21:10 11.9 100 10.59 11.9 9 9 1016.3 12.8 24.0 30.0 49.4 130.1 129.1 445.7
05/09 21:00 12 100 10.66 12 7 9 1016.1 12.8 24.1 30.1 49.7 130.7 130.0 448.6
05/09 20:50 12.1 100 10.73 12.1 7 9 1016.1 12.8 24.3 30.2 49.9 131.4 130.8 451.6
05/09 20:40 12.1 100 10.73 12.1 9 13 1016 12.8 24.3 30.2 49.9 131.4 130.8 451.5
05/09 20:30 12.1 100 10.73 12.1 13 13 1015.7 12.8 24.3 30.2 49.9 131.3 130.8 451.4
05/09 20:20 12.2 100 10.79 12.2 7 11 1015.7 12.8 24.4 30.2 50.1 131.9 131.5 453.9
05/09 20:10 12.3 100 10.86 12.3 7 9 1015.8 12.8 24.5 30.3 50.4 132.6 132.3 456.9
05/09 20:00 12.3 100 10.86 12.3 7 9 1015.8 12.8 24.5 30.3 50.4 132.6 132.3 456.9
05/09 19:50 12.3 100 10.86 12.3 9 11 1015.7 12.8 24.5 30.3 50.4 132.5 132.3 456.9
05/09 19:40 12.3 100 10.86 12.3 9 11 1015.7 12.8 24.5 30.3 50.4 132.5 132.3 456.9
05/09 19:30 12.4 100 10.93 12.4 11 15 1015.5 12.8 24.7 30.4 50.6 133.2 133.2 459.8
05/09 19:20 12.4 100 10.93 12.4 13 17 1015.5 12.8 24.7 30.4 50.6 133.2 133.2 459.8
05/09 19:10 12.3 100 10.86 12.3 13 17 1015.5 12.8 24.5 30.3 50.3 132.5 132.3 456.8
05/09 19:00 12.3 100 10.86 12.3 13 17 1015.5 12.8 24.5 30.3 50.3 132.5 132.3 456.8
05/09 18:50 12.3 100 10.86 12.3 15 19 1015.3 12.2 24.5 30.3 50.3 132.5 132.3 456.8
05/09 18:40 12.3 99 10.75 12.1 17 20 1015.1 10.8 24.3 30.1 49.8 131.2 130.7 451.1
05/09 18:30 12.5 99 10.89 12.3 15 24 1015.2 10 24.6 30.3 50.3 132.5 132.4 457.1
05/09 18:20 12.8 99 11.09 12.6 24 33 1015.1 9.2 25.0 30.5 51.0 134.3 134.8 465.4
05/09 18:10 14.3 99 12.16 14.1 13 19 1014.5 5.4 27.2 31.9 54.8 144.4 147.7 510.7
05/09 18:00 14.2 97 11.84 13.7 11 15 1014.2 2.8 26.5 31.3 53.4 140.7 143.1 494.7
05/09 17:50 14.1 97 11.77 13.6 13 20 1014.1 2.8 26.4 31.2 53.1 140.0 142.2 491.7
05/09 17:40 14.2 96 11.72 13.6 20 28 1013.9 2.8 26.3 31.1 52.8 139.2 141.3 488.5
05/09 17:30 14.4 98 12.11 14.1 26 39 1013.6 2.8 27.1 31.7 54.4 143.4 146.6 507.1
05/09 17:20 14.7 92 11.58 13.4 20 30 1013.4 2.8 25.9 30.7 51.8 136.6 138.3 478.0
05/09 17:10 15.7 82 10.97 12.6 11 19 1013.3 2.6 24.6 29.3 48.5 127.8 127.8 441.7
05/09 17:00 15.8 79 10.63 12.2 13 17 1013.2 1.6 23.8 28.6 47.0 123.8 122.9 424.6
05/09 16:50 16.1 78 10.69 12.3 17 22 1013.2 1.6 23.9 28.6 47.1 124.0 123.3 425.9
05/09 16:40 16.7 73 10.37 11.8 22 32 1013.2 1.6 23.2 27.9 45.4 119.5 118.0 407.4
05/09 16:30 16.7 74 10.52 12 22 30 1013.3 1.6 23.5 28.2 46.0 121.2 120.0 414.5
05/09 16:20 16.7 75 10.66 12.3 22 30 1013.1 1.6 23.8 28.4 46.6 122.7 121.9 421.1
05/09 16:10 16.8 74 10.58 12.1 20 28 1012.9 1.6 23.7 28.2 46.2 121.6 120.7 416.7
05/09 16:00 16.9 71 10.21 11.6 22 30 1013 1.6 22.9 27.6 44.6 117.4 115.5 398.8
05/09 15:50 17 70 10.13 11.5 24 32 1013.1 1.6 22.7 27.4 44.3 116.4 114.3 394.6
05/09 15:40 16.8 71 10.15 11.5 24 37 1013.3 1.6 22.7 27.5 44.5 117.0 114.9 396.6
05/09 15:30 17.2 71 10.4 11.9 28 35 1013.3 1.6 23.3 27.8 45.3 119.1 117.6 406.2
05/09 15:20 17.5 69 10.29 11.8 28 39 1013.4 1.6 23.0 27.5 44.7 117.4 115.7 399.6

Last Refresh: 06-Sep-2026 09:31:51

Bureau of Meteorology